Terminal Aerodrome Forecast
Issued by NWS

Home | Current Version | Previous Version | Text Only | Print | Product List | Glossary On
Versions: 1 2 3 4 5 6 7 8 9 10 11 12 13 14 15
157
FTUS42 TJSJ 181740
TAFJMZ
TAF
TJMZ 181740Z 1818/1918 27009KT P6SM -SHRA SCT030 BKN050
     FM182300 VRB04KT P6SM VCTS SCT030CB BKN080
     FM191400 29009KT P6SM VCSH SCT040
      AMD NOT SKED=

USA.gov is the U.S. government's official web portal to all federal, state and local government web resources and services.